createdAt,value
2017-12-10T00:02:08.565Z,55.30
2017-12-10T00:04:36.613Z,56.10
2017-12-10T00:07:05.450Z,56.60
2017-12-10T00:09:33.519Z,56.40
2017-12-10T00:12:01.573Z,56.90
2017-12-10T00:14:29.642Z,56.70
2017-12-10T00:16:57.700Z,55.80
2017-12-10T00:19:26.605Z,57.30
2017-12-10T00:21:54.657Z,56.70
2017-12-10T00:24:23.461Z,56.80
2017-12-10T00:26:51.521Z,57.50
2017-12-10T00:29:20.441Z,56.80
2017-12-10T00:31:48.605Z,56.20
2017-12-10T00:34:16.677Z,57.00
2017-12-10T00:36:44.849Z,56.50
2017-12-10T00:39:12.927Z,56.40
2017-12-10T00:41:40.972Z,57.80
2017-12-10T00:44:09.890Z,57.00
2017-12-10T00:46:37.977Z,56.80
2017-12-10T00:49:06.137Z,57.00
2017-12-10T00:51:34.205Z,56.80
2017-12-10T00:54:02.282Z,57.30
2017-12-10T00:56:30.345Z,56.60
2017-12-10T00:58:58.401Z,57.00
2017-12-10T01:01:26.449Z,57.30
2017-12-10T01:03:54.566Z,57.20
2017-12-10T01:06:28.569Z,57.60
2017-12-10T01:08:57.056Z,58.40
2017-12-10T01:11:25.108Z,57.80
2017-12-10T01:13:53.165Z,58.40
2017-12-10T01:16:21.981Z,58.20
2017-12-10T01:18:50.050Z,57.70
2017-12-10T01:21:18.489Z,57.80
2017-12-10T01:23:46.613Z,57.30
2017-12-10T01:26:14.681Z,59.20
2017-12-10T01:28:42.857Z,58.50
2017-12-10T01:31:10.924Z,58.20
2017-12-10T01:33:38.969Z,57.60
2017-12-10T01:36:07.793Z,58.50
2017-12-10T01:38:35.857Z,57.80
2017-12-10T01:41:03.901Z,57.60
2017-12-10T01:43:32.725Z,58.40
2017-12-10T01:46:00.796Z,58.20
2017-12-10T01:48:29.258Z,58.10
2017-12-10T01:50:57.339Z,59.20
2017-12-10T01:53:26.137Z,59.60
2017-12-10T01:55:54.312Z,59.10
2017-12-10T01:58:22.403Z,59.20
2017-12-10T02:00:50.462Z,59.70
2017-12-10T02:03:18.529Z,58.00
2017-12-10T02:05:46.603Z,58.60
2017-12-10T02:08:14.668Z,58.80
2017-12-10T02:10:42.717Z,58.70
2017-12-10T02:13:11.558Z,60.90
2017-12-10T02:15:39.606Z,59.10
2017-12-10T02:18:07.784Z,59.20
2017-12-10T02:20:35.852Z,59.50
2017-12-10T02:23:03.936Z,59.20
2017-12-10T02:25:32.801Z,59.10
2017-12-10T02:28:00.884Z,60.00
2017-12-10T02:30:29.056Z,59.90
2017-12-10T02:32:57.134Z,59.40
2017-12-10T02:35:25.193Z,59.20
2017-12-10T02:37:53.259Z,59.70
2017-12-10T02:40:21.346Z,59.40
2017-12-10T02:42:49.417Z,59.20
2017-12-10T02:45:17.589Z,59.60
2017-12-10T02:47:45.637Z,59.20
2017-12-10T02:50:15.065Z,59.30
2017-12-10T02:52:44.333Z,60.50
2017-12-10T02:55:13.157Z,60.10
2017-12-10T02:57:41.212Z,59.90
2017-12-10T03:00:09.302Z,60.00
2017-12-10T03:02:37.364Z,60.00
2017-12-10T03:05:05.409Z,59.50
2017-12-10T03:07:34.224Z,60.50
2017-12-10T03:10:02.289Z,60.00
2017-12-10T03:12:30.376Z,60.50
2017-12-10T03:14:58.445Z,61.10
2017-12-10T03:17:26.525Z,61.10
2017-12-10T03:19:55.409Z,61.00
2017-12-10T03:22:23.483Z,61.20
2017-12-10T03:24:51.532Z,62.00
2017-12-10T03:27:20.346Z,62.10
2017-12-10T03:29:48.416Z,61.30
2017-12-10T03:32:16.501Z,61.60
2017-12-10T03:34:44.561Z,61.70
2017-12-10T03:37:12.621Z,61.70
2017-12-10T03:39:40.701Z,61.10
2017-12-10T03:42:08.753Z,60.90
2017-12-10T03:44:36.845Z,60.10
2017-12-10T03:47:04.908Z,60.80
2017-12-10T03:49:32.952Z,60.70
2017-12-10T03:52:01.877Z,61.70
2017-12-10T03:54:29.937Z,61.60
2017-12-10T03:56:58.849Z,61.30
2017-12-10T03:59:26.913Z,60.70
2017-12-10T04:01:54.977Z,60.70
2017-12-10T04:04:23.056Z,60.70
2017-12-10T04:06:51.118Z,60.70
2017-12-10T04:09:19.201Z,60.70
2017-12-10T04:11:47.245Z,60.00
2017-12-10T04:14:16.051Z,61.00
2017-12-10T04:16:44.133Z,60.00
2017-12-10T04:19:12.204Z,59.70
2017-12-10T04:21:40.281Z,60.50
2017-12-10T04:24:08.331Z,60.30
2017-12-10T04:26:37.137Z,60.60
2017-12-10T04:29:05.981Z,60.60
2017-12-10T04:31:34.101Z,60.90
2017-12-10T04:34:02.157Z,61.00
2017-12-10T04:36:30.248Z,61.60
2017-12-10T04:38:58.317Z,62.10
2017-12-10T04:41:26.357Z,61.50
2017-12-10T04:43:55.185Z,62.20
2017-12-10T04:46:23.248Z,62.50
2017-12-10T04:48:51.317Z,61.80
2017-12-10T04:51:19.392Z,62.10
2017-12-10T04:53:47.464Z,62.00
2017-12-10T04:56:15.550Z,61.30
2017-12-10T04:58:43.709Z,63.30
2017-12-10T05:01:11.786Z,62.60
2017-12-10T05:03:39.857Z,62.20
2017-12-10T05:06:07.908Z,62.20
2017-12-10T05:08:35.953Z,62.60
2017-12-10T05:11:04.005Z,62.70
2017-12-10T05:13:32.061Z,62.50
2017-12-10T05:16:00.124Z,61.90
2017-12-10T05:18:28.169Z,64.20
2017-12-10T05:20:56.222Z,62.70
2017-12-10T05:23:25.145Z,62.80
2017-12-10T05:25:53.217Z,62.00
2017-12-10T05:28:21.289Z,62.80
2017-12-10T05:30:49.768Z,62.20
2017-12-10T05:33:17.812Z,62.40
2017-12-10T05:35:46.733Z,63.90
2017-12-10T05:38:14.809Z,62.70
2017-12-10T05:40:42.857Z,63.80
2017-12-10T05:43:10.908Z,64.30
2017-12-10T05:45:39.840Z,65.30
2017-12-10T05:48:07.909Z,64.60
2017-12-10T05:50:35.956Z,62.60
2017-12-10T05:53:04.931Z,64.20
2017-12-10T05:55:32.981Z,63.70
2017-12-10T05:58:01.120Z,64.60
2017-12-10T06:00:29.581Z,63.90
2017-12-10T06:02:58.493Z,64.70
2017-12-10T06:05:27.385Z,63.50
2017-12-10T06:07:55.905Z,63.90
2017-12-10T06:10:23.949Z,63.80
2017-12-10T06:12:52.849Z,64.00
2017-12-10T06:15:20.901Z,64.00
2017-12-10T06:17:48.957Z,64.10
2017-12-10T06:20:17.784Z,64.80
2017-12-10T06:22:46.229Z,65.00
2017-12-10T06:25:14.720Z,64.90
2017-12-10T06:27:42.951Z,64.40
2017-12-10T06:30:11.792Z,63.50
2017-12-10T06:32:39.828Z,64.70
2017-12-10T06:35:08.658Z,65.70
2017-12-10T06:37:36.820Z,64.20
2017-12-10T06:40:05.272Z,64.70
2017-12-10T06:42:34.098Z,65.60
2017-12-10T06:45:02.559Z,69.10
2017-12-10T06:47:30.649Z,64.10
2017-12-10T06:49:58.700Z,64.20
2017-12-10T06:52:26.765Z,64.80
2017-12-10T06:54:55.577Z,66.40
2017-12-10T06:57:23.648Z,65.90
2017-12-10T06:59:51.709Z,65.60
2017-12-10T07:02:19.796Z,65.60
2017-12-10T07:04:48.276Z,65.30
2017-12-10T07:07:16.724Z,66.00
2017-12-10T07:09:45.549Z,66.90
2017-12-10T07:12:13.749Z,65.90
2017-12-10T07:14:42.558Z,65.40
2017-12-10T07:17:10.624Z,66.00
2017-12-10T07:19:40.168Z,66.40
2017-12-10T07:22:08.262Z,65.70
2017-12-10T07:24:36.305Z,65.80
2017-12-10T07:27:05.113Z,66.80
2017-12-10T07:29:33.176Z,65.80
2017-12-10T07:32:01.620Z,66.20
2017-12-10T07:34:29.761Z,66.00
2017-12-10T07:36:58.568Z,66.20
2017-12-10T07:39:26.733Z,67.40
2017-12-10T07:41:54.880Z,65.70
2017-12-10T07:44:23.057Z,66.40
2017-12-10T07:46:51.497Z,66.30
2017-12-10T07:49:20.308Z,66.40
2017-12-10T07:51:48.428Z,66.40
2017-12-10T07:54:16.489Z,66.80
2017-12-10T07:56:44.647Z,66.50
2017-12-10T07:59:13.844Z,66.20
2017-12-10T08:01:41.880Z,66.40
2017-12-10T08:04:10.724Z,66.40
2017-12-10T08:06:38.760Z,65.10
2017-12-10T08:09:06.813Z,64.50
2017-12-10T08:11:35.650Z,68.10
2017-12-10T08:14:03.708Z,65.50
2017-12-10T08:16:32.191Z,63.30
2017-12-10T08:19:00.361Z,62.20
2017-12-10T08:21:28.433Z,61.10
2017-12-10T08:23:56.508Z,60.70
2017-12-10T08:26:24.576Z,62.10
2017-12-10T08:28:52.653Z,61.70
2017-12-10T08:31:20.700Z,58.80
2017-12-10T08:33:49.613Z,63.10
2017-12-10T08:36:17.656Z,61.90
2017-12-10T08:38:46.469Z,65.10
2017-12-10T08:41:14.530Z,61.30
2017-12-10T08:43:43.333Z,59.70
2017-12-10T08:46:11.392Z,54.90
2017-12-10T08:48:39.475Z,55.70
2017-12-10T08:51:07.521Z,55.90
2017-12-10T08:53:36.489Z,57.10
2017-12-10T08:56:05.328Z,57.60
2017-12-10T08:58:33.785Z,57.60
2017-12-10T09:01:02.705Z,55.10
2017-12-10T09:03:30.773Z,53.70
2017-12-10T09:05:58.839Z,55.80
2017-12-10T09:08:26.882Z,54.80
2017-12-10T09:10:55.704Z,54.60
2017-12-10T09:13:23.748Z,54.60
2017-12-10T09:15:52.669Z,53.30
2017-12-10T09:18:20.720Z,53.60
2017-12-10T09:20:48.817Z,52.40
2017-12-10T09:23:17.282Z,52.40
2017-12-10T09:25:45.320Z,51.00
2017-12-10T09:28:13.366Z,48.70
2017-12-10T09:30:41.533Z,51.00
2017-12-10T09:33:09.601Z,51.10
2017-12-10T09:35:37.653Z,51.30
2017-12-10T09:38:05.725Z,50.70
2017-12-10T09:40:33.795Z,51.70
2017-12-10T09:43:01.837Z,50.10
2017-12-10T09:45:30.673Z,48.80
2017-12-10T09:47:58.833Z,44.70
2017-12-10T09:50:26.905Z,45.20
2017-12-10T09:52:54.981Z,48.00
2017-12-10T09:55:23.044Z,48.90
2017-12-10T09:57:51.089Z,52.50
2017-12-10T10:00:20.013Z,52.40
2017-12-10T10:02:48.087Z,47.70
2017-12-10T10:05:16.543Z,53.10
2017-12-10T10:07:45.353Z,54.10
2017-12-10T10:10:13.405Z,55.70
2017-12-10T10:12:41.913Z,60.70
2017-12-10T10:15:10.373Z,66.10
2017-12-10T10:17:38.433Z,68.70
2017-12-10T10:20:06.868Z,74.50
2017-12-10T10:22:35.013Z,75.10
2017-12-10T10:25:03.056Z,77.90
2017-12-10T10:27:31.496Z,80.50
2017-12-10T10:29:59.641Z,81.80
2017-12-10T10:32:27.713Z,81.50
2017-12-10T10:34:55.773Z,82.70
2017-12-10T10:37:23.818Z,83.80
2017-12-10T10:39:52.748Z,85.00
2017-12-10T10:42:21.185Z,85.20
2017-12-10T10:44:49.296Z,86.60
2017-12-10T10:47:17.365Z,87.00
2017-12-10T10:49:45.441Z,88.40
2017-12-10T10:52:13.519Z,88.60
2017-12-10T10:54:41.573Z,88.10
2017-12-10T10:57:09.617Z,87.60
2017-12-10T10:59:37.724Z,86.60
2017-12-10T11:02:06.208Z,86.70
2017-12-10T11:04:34.265Z,88.00
2017-12-10T11:07:02.348Z,88.20
2017-12-10T11:09:30.409Z,88.20
2017-12-10T11:11:58.501Z,87.60
2017-12-10T11:14:27.309Z,87.70
2017-12-10T11:16:55.873Z,87.60
2017-12-10T11:19:23.940Z,88.50
2017-12-10T11:21:52.041Z,89.10
2017-12-10T11:24:20.812Z,90.20
2017-12-10T11:26:48.857Z,90.00
2017-12-10T11:29:16.945Z,88.60
2017-12-10T11:31:45.001Z,87.20
2017-12-10T11:34:13.065Z,86.20
2017-12-10T11:36:41.872Z,87.40
2017-12-10T11:39:09.921Z,87.40
2017-12-10T11:41:38.840Z,88.40
2017-12-10T11:44:07.737Z,87.50
2017-12-10T11:46:36.189Z,86.40
2017-12-10T11:49:04.997Z,87.50
2017-12-10T11:51:33.066Z,87.00
2017-12-10T11:54:01.105Z,86.80
2017-12-10T11:56:29.224Z,84.50
2017-12-10T11:58:57.292Z,82.30
2017-12-10T12:01:25.354Z,83.00
2017-12-10T12:03:53.432Z,86.90
2017-12-10T12:06:21.471Z,83.50
2017-12-10T12:08:49.985Z,83.00
2017-12-10T12:11:18.437Z,78.30
2017-12-10T12:13:47.257Z,82.50
2017-12-10T12:16:15.329Z,82.00
2017-12-10T12:18:43.500Z,81.10
2017-12-10T12:21:11.549Z,82.00
2017-12-10T12:23:40.464Z,80.20
2017-12-10T12:26:08.945Z,78.30
2017-12-10T12:28:37.008Z,77.60
2017-12-10T12:31:05.052Z,79.10
2017-12-10T12:33:33.869Z,84.90
2017-12-10T12:36:01.906Z,83.00
2017-12-10T12:38:30.007Z,83.10
2017-12-10T12:40:58.825Z,80.30
2017-12-10T12:43:26.887Z,78.90
2017-12-10T12:45:54.937Z,78.50
2017-12-10T12:48:23.060Z,78.00
2017-12-10T12:50:51.202Z,76.00
2017-12-10T12:53:19.654Z,77.50
2017-12-10T12:55:48.101Z,76.70
2017-12-10T12:58:16.252Z,77.30
2017-12-10T13:00:44.309Z,75.70
2017-12-10T13:03:12.353Z,75.50
2017-12-10T13:05:41.190Z,74.10
2017-12-10T13:08:09.345Z,75.40
2017-12-10T13:10:37.437Z,71.70
2017-12-10T13:13:05.521Z,72.90
2017-12-10T13:15:33.581Z,73.60
2017-12-10T13:18:01.625Z,71.50
2017-12-10T13:20:29.700Z,67.90
2017-12-10T13:22:57.747Z,71.90
2017-12-10T13:25:26.665Z,75.30
2017-12-10T13:27:54.732Z,73.20
2017-12-10T13:30:22.811Z,75.50
2017-12-10T13:32:50.865Z,75.60
2017-12-10T13:35:18.954Z,76.40
2017-12-10T13:37:47.038Z,77.20
2017-12-10T13:40:15.505Z,77.00
2017-12-10T13:42:43.564Z,77.60
2017-12-10T13:45:11.649Z,75.50
2017-12-10T13:47:40.472Z,72.20
2017-12-10T13:50:08.525Z,69.90
2017-12-10T13:52:36.988Z,75.00
2017-12-10T13:55:05.165Z,75.60
2017-12-10T13:57:33.241Z,75.90
2017-12-10T14:00:01.313Z,77.60
2017-12-10T14:02:29.382Z,75.50
2017-12-10T14:04:57.452Z,74.20
2017-12-10T14:07:25.630Z,74.80
2017-12-10T14:09:53.672Z,74.50
2017-12-10T14:12:22.589Z,78.80
2017-12-10T14:14:50.660Z,78.70
2017-12-10T14:17:18.696Z,76.30
2017-12-10T14:19:47.504Z,73.50
2017-12-10T14:22:15.609Z,73.80
2017-12-10T14:24:43.661Z,77.80
2017-12-10T14:27:11.737Z,78.30
2017-12-10T14:29:39.780Z,78.50
2017-12-10T14:32:08.705Z,82.30
2017-12-10T14:34:36.745Z,81.10
2017-12-10T14:37:05.595Z,81.70
2017-12-10T14:39:33.737Z,80.20
2017-12-10T14:42:01.780Z,81.50
2017-12-10T14:44:30.593Z,83.50
2017-12-10T14:46:59.067Z,81.10
2017-12-10T14:49:28.676Z,82.30
2017-12-10T14:51:56.870Z,83.10
2017-12-10T14:54:24.932Z,84.40
2017-12-10T14:56:52.996Z,84.80
2017-12-10T14:59:21.080Z,86.80
2017-12-10T15:01:49.255Z,85.20
2017-12-10T15:04:17.317Z,86.40
2017-12-10T15:06:45.805Z,85.70
2017-12-10T15:09:13.863Z,86.20
2017-12-10T15:11:41.920Z,84.30
2017-12-10T15:14:10.848Z,85.40
2017-12-10T15:16:39.665Z,86.00
2017-12-10T15:19:07.800Z,86.40
2017-12-10T15:21:35.853Z,86.60
2017-12-10T15:24:03.929Z,86.80
2017-12-10T15:26:31.977Z,87.60
2017-12-10T15:29:00.088Z,88.20
2017-12-10T15:31:28.405Z,88.40
2017-12-10T15:33:56.461Z,88.30
2017-12-10T15:36:24.513Z,87.60
2017-12-10T15:38:52.584Z,86.30
2017-12-10T15:41:20.661Z,88.20
2017-12-10T15:43:48.708Z,88.60
2017-12-10T15:46:17.538Z,89.60
2017-12-10T15:48:46.792Z,86.60
2017-12-10T15:51:14.817Z,84.60
2017-12-10T15:53:42.873Z,87.20
2017-12-10T15:56:10.920Z,86.80
2017-12-10T15:58:39.005Z,87.90
2017-12-10T16:01:07.057Z,88.70
2017-12-10T16:03:35.969Z,90.30
2017-12-10T16:06:04.044Z,90.50
2017-12-10T16:08:32.109Z,89.60
2017-12-10T16:11:00.569Z,89.30
2017-12-10T16:13:29.488Z,87.30
2017-12-10T16:15:57.533Z,88.10
2017-12-10T16:18:25.631Z,89.40
2017-12-10T16:20:53.701Z,89.20
2017-12-10T16:23:21.773Z,89.20
2017-12-10T16:25:49.841Z,90.00
2017-12-10T16:28:17.914Z,89.30
2017-12-10T16:30:46.094Z,88.00
2017-12-10T16:33:14.178Z,88.00
2017-12-10T16:35:42.225Z,88.60
2017-12-10T16:38:10.304Z,87.30
2017-12-10T16:40:38.386Z,88.30
2017-12-10T16:43:06.829Z,85.80
2017-12-10T16:45:35.644Z,86.70
2017-12-10T16:48:03.721Z,85.10
2017-12-10T16:50:32.726Z,84.90
2017-12-10T16:53:00.789Z,84.70
2017-12-10T16:55:28.957Z,83.40
2017-12-10T16:57:57.000Z,81.50
2017-12-10T17:00:25.922Z,81.40
2017-12-10T17:02:54.373Z,80.70
2017-12-10T17:05:22.837Z,80.50
2017-12-10T17:07:52.489Z,79.80
2017-12-10T17:10:20.541Z,80.90
2017-12-10T17:12:48.654Z,81.90
2017-12-10T17:15:16.822Z,80.00
2017-12-10T17:17:44.976Z,78.80
2017-12-10T17:20:13.057Z,80.00
2017-12-10T17:22:41.117Z,79.80
2017-12-10T17:25:09.301Z,78.90
2017-12-10T17:27:37.373Z,78.50
2017-12-10T17:30:05.482Z,79.00
2017-12-10T17:32:33.544Z,80.80
2017-12-10T17:35:01.580Z,80.40
2017-12-10T17:37:29.667Z,80.90
2017-12-10T17:39:57.734Z,79.00
2017-12-10T17:42:25.805Z,77.50
2017-12-10T17:44:53.844Z,78.10
2017-12-10T17:47:22.657Z,78.10
2017-12-10T17:49:50.739Z,77.80
2017-12-10T17:52:18.789Z,77.10
2017-12-10T17:54:47.710Z,79.20
2017-12-10T17:57:15.777Z,77.50
2017-12-10T17:59:43.866Z,79.60
2017-12-10T18:02:11.958Z,80.30
2017-12-10T18:04:40.365Z,78.90
2017-12-10T18:07:09.301Z,81.70
2017-12-10T18:09:37.420Z,81.40
2017-12-10T18:12:05.538Z,80.90
2017-12-10T18:14:33.609Z,80.30
2017-12-10T18:17:01.685Z,82.60
2017-12-10T18:19:29.765Z,81.80
2017-12-10T18:21:57.813Z,84.00
2017-12-10T18:24:27.032Z,88.00
2017-12-10T18:26:55.109Z,88.10
2017-12-10T18:29:23.244Z,89.70
2017-12-10T18:31:51.353Z,90.30
2017-12-10T18:34:19.457Z,90.60
2017-12-10T18:36:47.621Z,90.50
2017-12-10T18:39:15.669Z,90.60
2017-12-10T18:41:43.821Z,90.80
2017-12-10T18:44:12.637Z,91.10
2017-12-10T18:46:40.685Z,90.70
2017-12-10T18:49:09.605Z,91.30
2017-12-10T18:51:37.656Z,91.10
2017-12-10T18:54:05.701Z,91.10
2017-12-10T18:56:33.765Z,91.30
2017-12-10T18:59:01.885Z,90.80
2017-12-10T19:01:29.929Z,90.30
2017-12-10T19:03:58.849Z,90.20
2017-12-10T19:06:26.921Z,88.80
2017-12-10T19:08:54.992Z,89.90
2017-12-10T19:11:23.090Z,90.20
2017-12-10T19:13:51.137Z,90.70
2017-12-10T19:16:19.192Z,90.30
2017-12-10T19:18:47.277Z,88.90
2017-12-10T19:21:15.457Z,89.50
2017-12-10T19:23:44.345Z,86.00
2017-12-10T19:26:12.396Z,86.50
2017-12-10T19:28:40.461Z,86.60
2017-12-10T19:31:09.276Z,85.90
2017-12-10T19:33:37.349Z,85.30
2017-12-10T19:36:05.409Z,83.30
2017-12-10T19:38:33.493Z,82.50
2017-12-10T19:41:01.673Z,81.80
2017-12-10T19:43:29.741Z,82.10
2017-12-10T19:45:57.824Z,81.60
2017-12-10T19:48:25.991Z,81.20
2017-12-10T19:50:54.057Z,81.70
2017-12-10T19:53:22.129Z,79.80
2017-12-10T19:55:50.213Z,78.60
2017-12-10T19:58:18.281Z,80.30
2017-12-10T20:00:46.390Z,81.00
2017-12-10T20:03:14.829Z,79.30
2017-12-10T20:05:42.888Z,79.80
2017-12-10T20:08:10.970Z,80.20
2017-12-10T20:10:39.041Z,82.20
2017-12-10T20:13:08.236Z,85.00
2017-12-10T20:15:36.297Z,84.30
2017-12-10T20:18:04.344Z,83.40
2017-12-10T20:20:33.273Z,84.30
2017-12-10T20:23:01.428Z,82.40
2017-12-10T20:25:29.013Z,82.10
2017-12-10T20:27:56.585Z,82.90
2017-12-10T20:30:24.144Z,81.90
2017-12-10T20:32:51.708Z,83.20
2017-12-10T20:35:19.217Z,83.10
2017-12-10T20:37:47.485Z,84.40
2017-12-10T20:40:14.984Z,84.30
2017-12-10T20:42:42.487Z,84.40
2017-12-10T20:45:10.764Z,85.70
2017-12-10T20:47:38.300Z,86.00
2017-12-10T20:50:05.794Z,87.10
2017-12-10T20:52:33.296Z,87.50
2017-12-10T20:55:00.793Z,88.00
2017-12-10T20:57:28.433Z,88.50
2017-12-10T20:59:56.645Z,88.80
2017-12-10T21:02:24.136Z,88.70
2017-12-10T21:04:51.732Z,89.00
2017-12-10T21:07:19.240Z,88.70
2017-12-10T21:09:46.848Z,86.50
2017-12-10T21:12:14.380Z,81.20
2017-12-10T21:14:42.268Z,80.80
2017-12-10T21:17:09.800Z,79.70
2017-12-10T21:19:37.316Z,78.00
2017-12-10T21:22:04.828Z,78.50
2017-12-10T21:24:32.365Z,82.60
2017-12-10T21:26:59.996Z,83.20
2017-12-10T21:29:27.537Z,84.70
2017-12-10T21:31:55.100Z,84.80
2017-12-10T21:34:22.657Z,85.70
2017-12-10T21:36:50.324Z,86.40
2017-12-10T21:39:17.889Z,85.50
2017-12-10T21:41:45.436Z,87.50
2017-12-10T21:44:13.349Z,88.90
2017-12-10T21:46:41.648Z,91.50
2017-12-10T21:49:09.240Z,91.20
2017-12-10T21:51:36.756Z,91.90
2017-12-10T21:54:04.285Z,92.20
2017-12-10T21:56:32.573Z,93.40
2017-12-10T21:59:00.860Z,93.20
2017-12-10T22:01:28.476Z,93.20
2017-12-10T22:03:56.005Z,93.40
2017-12-10T22:06:23.598Z,93.40
2017-12-10T22:08:51.124Z,93.30
2017-12-10T22:11:18.640Z,93.50
2017-12-10T22:13:46.992Z,92.70
2017-12-10T22:16:14.549Z,91.20
2017-12-10T22:18:42.112Z,91.40
2017-12-10T22:21:09.660Z,91.30
2017-12-10T22:23:37.239Z,91.00
2017-12-10T22:26:04.788Z,90.90
2017-12-10T22:28:32.351Z,90.40
2017-12-10T22:31:00.324Z,90.40
2017-12-10T22:33:27.880Z,90.60
2017-12-10T22:35:55.405Z,90.50
2017-12-10T22:38:24.124Z,90.90
2017-12-10T22:40:51.689Z,90.10
2017-12-10T22:43:19.244Z,89.80
2017-12-10T22:45:46.777Z,89.80
2017-12-10T22:48:14.753Z,90.30
2017-12-10T22:50:43.557Z,90.80
2017-12-10T22:53:11.156Z,90.90
2017-12-10T22:55:39.524Z,91.10
2017-12-10T22:58:07.801Z,90.70
2017-12-10T23:00:35.304Z,90.20
2017-12-10T23:03:02.824Z,90.60
2017-12-10T23:05:30.357Z,90.30
2017-12-10T23:07:57.880Z,90.20
2017-12-10T23:10:25.369Z,89.80
2017-12-10T23:12:52.940Z,90.00
2017-12-10T23:15:20.459Z,90.20
2017-12-10T23:17:48.716Z,90.40
2017-12-10T23:20:22.801Z,90.40
2017-12-10T23:22:50.696Z,90.40
2017-12-10T23:25:19.025Z,90.90
2017-12-10T23:27:47.404Z,90.50
2017-12-10T23:30:14.967Z,90.70
2017-12-10T23:32:43.165Z,91.20
2017-12-10T23:35:10.700Z,90.90
2017-12-10T23:37:38.192Z,91.10
2017-12-10T23:40:05.720Z,91.10
2017-12-10T23:42:33.228Z,91.10
2017-12-10T23:45:01.557Z,91.20
2017-12-10T23:47:29.444Z,90.50
2017-12-10T23:49:56.980Z,90.30
2017-12-10T23:52:24.472Z,90.10
2017-12-10T23:54:52.000Z,90.10
2017-12-10T23:57:19.487Z,90.40
2017-12-10T23:59:47.112Z,90.20
